Time;durP1;ratioP1;P1;durP2;ratioP2;P2;SDS_P1;SDS_P2;PMS_P1;PMS_P2;Temp;Humidity;BMP_temperature;BMP_pressure;BME280_temperature;BME280_humidity;BME280_pressure;Samples;Min_cycle;Max_cycle;Signal;HPM_P1;HPM_P2
2022/10/13 00:01:22;;;;;;;31.85;12.32;;;;;;;-145.49;100.00;62790.56;4930067;29;20407;-73
2022/10/13 00:03:49;;;;;;;28.88;12.55;;;;;;;-145.49;100.00;62790.56;4932314;29;20043;-74
2022/10/13 00:06:25;;;;;;;51.75;13.13;;;;;;;-145.49;100.00;62790.56;4931639;29;20051;-73
2022/10/13 00:08:55;;;;;;;15.45;9.82;;;;;;;-145.49;100.00;62790.56;4920411;29;20450;-74
2022/10/13 00:11:31;;;;;;;23.75;11.30;;;;;;;-145.49;100.00;62790.56;4951276;28;20047;-73
2022/10/13 00:14:05;;;;;;;20.52;12.07;;;;;;;-145.49;100.00;62790.56;4927783;29;20051;-74
2022/10/13 00:16:34;;;;;;;52.10;14.80;;;;;;;-145.49;100.00;62790.56;4933027;29;20040;-73
2022/10/13 00:19:05;;;;;;;63.00;14.50;;;;;;;-145.49;100.00;62790.56;4933863;29;20035;-72
2022/10/13 00:21:34;;;;;;;28.85;12.60;;;;;;;-145.49;100.00;62790.56;4941474;28;20040;-73
2022/10/13 00:24:00;;;;;;;18.67;10.75;;;;;;;-145.49;100.00;62790.56;4927429;29;20039;-73
2022/10/13 00:26:26;;;;;;;39.20;16.00;;;;;;;-145.49;100.00;62790.56;4933677;29;20047;-73
2022/10/13 00:28:54;;;;;;;28.08;11.23;;;;;;;-145.49;100.00;62790.56;4928802;29;20043;-73
2022/10/13 00:31:28;;;;;;;17.20;9.70;;;;;;;-145.49;100.00;62790.56;4900226;29;20063;-73
2022/10/13 00:33:56;;;;;;;27.17;11.43;;;;;;;-145.49;100.00;62790.56;4934166;29;20039;-74
2022/10/13 00:36:25;;;;;;;32.38;11.57;;;;;;;-145.49;100.00;62790.56;4935070;29;20043;-73
2022/10/13 00:38:55;;;;;;;15.60;10.05;;;;;;;-145.49;100.00;62790.56;4926553;29;20405;-72
2022/10/13 00:41:23;;;;;;;24.00;10.75;;;;;;;-145.49;100.00;62790.56;4933327;29;20429;-73
2022/10/13 00:44:02;;;;;;;30.13;12.40;;;;;;;-145.49;100.00;62790.56;4922893;29;20036;-74
2022/10/13 00:46:30;;;;;;;26.15;12.40;;;;;;;-145.49;100.00;62790.56;4929928;29;20402;-74
2022/10/13 00:49:07;;;;;;;24.75;11.52;;;;;;;-145.49;100.00;62790.56;4936486;29;20042;-75
2022/10/13 00:51:39;;;;;;;32.63;13.00;;;;;;;-145.49;100.00;62790.56;4926601;29;20425;-74
2022/10/13 00:54:18;;;;;;;19.27;11.88;;;;;;;-145.49;100.00;62790.56;4939113;28;20042;-73
2022/10/13 00:56:47;;;;;;;18.85;12.65;;;;;;;-145.49;100.00;62790.56;4934029;29;20040;-74
2022/10/13 00:59:27;;;;;;;23.67;12.30;;;;;;;-145.49;100.00;62790.56;4934357;29;20039;-73
2022/10/13 01:01:58;;;;;;;18.13;11.97;;;;;;;-145.49;100.00;62790.56;4932254;29;20552;-74
2022/10/13 01:04:36;;;;;;;18.17;12.75;;;;;;;-145.49;100.00;62790.56;4926356;29;20058;-74
2022/10/13 01:07:04;;;;;;;31.60;12.95;;;;;;;-145.49;100.00;62790.56;4926886;29;20050;-74
2022/10/13 01:09:36;;;;;;;51.60;13.27;;;;;;;-145.49;100.00;62790.56;4928532;29;20533;-74
2022/10/13 01:12:05;;;;;;;36.78;11.82;;;;;;;-145.49;100.00;62790.56;4916785;29;20391;-74
2022/10/13 01:14:34;;;;;;;31.50;11.38;;;;;;;-145.49;100.00;62790.56;4927479;29;20036;-74
2022/10/13 01:17:16;;;;;;;34.22;13.45;;;;;;;-145.49;100.00;62790.56;4926891;29;20035;-74
2022/10/13 01:19:51;;;;;;;34.00;10.52;;;;;;;-145.49;100.00;62790.56;4934402;29;20052;-74
2022/10/13 01:22:48;;;;;;;28.98;10.50;;;;;;;-145.49;100.00;62790.56;4929462;29;20036;-73
2022/10/13 01:25:43;;;;;;;30.02;12.27;;;;;;;-145.49;100.00;62790.56;4936522;29;20047;-74
2022/10/13 01:28:33;;;;;;;34.28;11.60;;;;;;;-145.49;100.00;62790.56;4920687;29;20062;-73
2022/10/13 01:31:32;;;;;;;53.70;12.65;;;;;;;-145.49;100.00;62790.56;4928514;29;20051;-73
2022/10/13 01:34:09;;;;;;;30.55;11.98;;;;;;;-145.49;100.00;62790.56;4929830;29;20040;-73
2022/10/13 01:36:41;;;;;;;21.10;10.63;;;;;;;-145.49;100.00;62790.56;4932564;29;20056;-73
2022/10/13 01:39:22;;;;;;;25.70;11.32;;;;;;;-145.49;100.00;62790.56;4930291;29;20043;-73
2022/10/13 01:41:59;;;;;;;29.70;10.40;;;;;;;-145.49;100.00;62790.56;4928290;29;20051;-74
2022/10/13 01:44:35;;;;;;;23.58;10.02;;;;;;;-145.49;100.00;62790.56;4928641;29;20047;-74
2022/10/13 01:47:11;;;;;;;33.67;9.98;;;;;;;-145.49;100.00;62790.56;4933351;29;20044;-74
2022/10/13 01:49:41;;;;;;;23.65;8.80;;;;;;;-145.49;100.00;62790.56;4933253;28;20479;-73
2022/10/13 01:52:12;;;;;;;13.15;9.05;;;;;;;-145.49;100.00;62790.56;4931536;29;20042;-73
2022/10/13 01:54:38;;;;;;;12.57;9.23;;;;;;;-145.49;100.00;62790.56;4936458;29;20509;-73
2022/10/13 01:57:25;;;;;;;14.65;10.00;;;;;;;-145.49;100.00;62790.56;4939306;29;20040;-73
2022/10/13 01:59:56;;;;;;;14.93;8.77;;;;;;;-145.49;100.00;62790.56;4916921;29;20047;-73
2022/10/13 02:02:38;;;;;;;30.58;9.27;;;;;;;-145.49;100.00;62790.56;4924719;29;20047;-74
2022/10/13 02:05:13;;;;;;;14.25;10.20;;;;;;;-145.49;100.00;62790.56;4945031;28;20043;-74
2022/10/13 02:07:45;;;;;;;12.75;10.15;;;;;;;-145.49;100.00;62790.56;4934215;29;20047;-73
2022/10/13 02:10:23;;;;;;;11.18;10.07;;;;;;;-145.49;100.00;62790.56;4930755;29;20048;-73
2022/10/13 02:13:02;;;;;;;23.88;10.57;;;;;;;-145.49;100.00;62790.56;4929579;29;20121;-74
2022/10/13 02:15:47;;;;;;;16.65;10.85;;;;;;;-145.49;100.00;62790.56;4925797;29;20472;-73
2022/10/13 02:18:17;;;;;;;17.00;9.02;;;;;;;-145.49;100.00;62790.56;4945534;28;20044;-74
2022/10/13 02:20:46;;;;;;;14.38;11.20;;;;;;;-145.49;100.00;62790.56;4928197;29;20040;-73
2022/10/13 02:23:15;;;;;;;12.15;10.80;;;;;;;-145.49;100.00;62790.56;4935717;29;20039;-74
2022/10/13 02:25:45;;;;;;;17.13;9.90;;;;;;;-145.49;100.00;62790.56;4935084;29;20472;-74
2022/10/13 02:28:13;;;;;;;12.98;9.25;;;;;;;-145.49;100.00;62790.56;4936269;29;20051;-74
2022/10/13 02:30:46;;;;;;;10.98;9.80;;;;;;;-145.49;100.00;62790.56;4928531;29;20054;-74
2022/10/13 02:33:15;;;;;;;14.35;11.02;;;;;;;-145.49;100.00;62790.56;4928065;29;20055;-73
2022/10/13 02:35:44;;;;;;;11.48;9.80;;;;;;;-145.49;100.00;62790.56;4925904;29;20036;-73
2022/10/13 02:38:13;;;;;;;13.90;9.80;;;;;;;-145.49;100.00;62790.56;4935520;29;20047;-73
2022/10/13 02:40:39;;;;;;;10.77;9.60;;;;;;;-145.49;100.00;62790.56;4922453;29;20040;-73
2022/10/13 02:43:07;;;;;;;12.02;9.90;;;;;;;-145.49;100.00;62790.56;4928641;29;20039;-73
2022/10/13 02:45:33;;;;;;;14.07;8.52;;;;;;;-145.49;100.00;62790.56;4931281;29;20032;-73
2022/10/13 02:48:04;;;;;;;12.38;9.77;;;;;;;-145.49;100.00;62790.56;4931995;29;20038;-73
2022/10/13 02:50:33;;;;;;;11.95;9.25;;;;;;;-145.49;100.00;62790.56;4935932;29;20032;-73
2022/10/13 02:52:59;;;;;;;14.27;9.02;;;;;;;-145.49;100.00;62790.56;4933452;29;20402;-73
2022/10/13 02:55:26;;;;;;;13.23;11.00;;;;;;;-145.49;100.00;62790.56;4944993;28;20035;-73
2022/10/13 02:57:57;;;;;;;9.98;8.27;;;;;;;-145.49;100.00;62790.56;4927377;29;20426;-73
2022/10/13 03:00:26;;;;;;;12.25;10.65;;;;;;;-145.49;100.00;62790.56;4950007;28;20040;-72
2022/10/13 03:02:54;;;;;;;15.38;11.70;;;;;;;-145.49;100.00;62790.56;4931088;29;20043;-73
2022/10/13 03:05:21;;;;;;;11.10;9.32;;;;;;;-145.49;100.00;62790.56;4931494;29;20043;-73
2022/10/13 03:07:49;;;;;;;16.58;10.32;;;;;;;-145.49;100.00;62790.56;4929941;29;20047;-73
2022/10/13 03:10:15;;;;;;;17.05;11.77;;;;;;;-145.49;100.00;62790.56;4934187;29;20031;-73
2022/10/13 03:12:41;;;;;;;15.82;9.27;;;;;;;-145.49;100.00;62790.56;4931994;29;20047;-73
2022/10/13 03:15:09;;;;;;;24.20;10.18;;;;;;;-145.49;100.00;62790.56;4929269;29;20039;-74
2022/10/13 03:17:41;;;;;;;25.80;11.23;;;;;;;-145.49;100.00;62790.56;4934175;29;20036;-73
2022/10/13 03:20:10;;;;;;;16.48;11.55;;;;;;;-145.49;100.00;62790.56;4932619;29;20044;-73
2022/10/13 03:22:43;;;;;;;17.20;12.25;;;;;;;-145.49;100.00;62790.56;4935236;28;20040;-73
2022/10/13 03:25:12;;;;;;;29.52;11.25;;;;;;;-145.49;100.00;62790.56;4933888;29;20243;-73
2022/10/13 03:27:40;;;;;;;20.48;12.43;;;;;;;-145.49;100.00;62790.56;4930820;29;20486;-73
2022/10/13 03:30:11;;;;;;;23.70;12.52;;;;;;;-145.49;100.00;62790.56;4939085;29;20043;-74
2022/10/13 03:32:44;;;;;;;;;;;;;;;-145.49;100.00;62790.56;4928518;29;20043;-73
2022/10/13 03:35:13;;;;;;;16.55;13.35;;;;;;;-145.49;100.00;62790.56;4935131;29;19915;-74
2022/10/13 03:37:42;;;;;;;22.13;10.38;;;;;;;-145.49;100.00;62790.56;4931489;29;20058;-74
2022/10/13 03:40:12;;;;;;;21.08;12.43;;;;;;;-145.49;100.00;62790.56;4944827;28;20044;-73
2022/10/13 03:42:40;;;;;;;18.23;12.93;;;;;;;-145.49;100.00;62790.56;4931307;29;20039;-73
2022/10/13 03:45:08;;;;;;;22.45;13.48;;;;;;;-145.49;100.00;62790.56;4929584;29;20043;-73
2022/10/13 03:47:35;;;;;;;22.15;14.38;;;;;;;-145.49;100.00;62790.56;4947878;28;20508;-73
2022/10/13 03:50:07;;;;;;;16.13;13.02;;;;;;;-145.49;100.00;62790.56;4934767;29;20032;-73
2022/10/13 03:52:35;;;;;;;29.13;13.88;;;;;;;-145.49;100.00;62790.56;4942858;29;20042;-74
2022/10/13 03:55:04;;;;;;;36.38;13.70;;;;;;;-145.49;100.00;62790.56;4931346;29;20039;-74
2022/10/13 03:57:30;;;;;;;20.73;13.63;;;;;;;-145.49;100.00;62790.56;4934793;29;20483;-74
2022/10/13 04:00:08;;;;;;;26.42;15.07;;;;;;;-145.49;100.00;62790.56;4932356;29;20406;-74
2022/10/13 04:02:41;;;;;;;22.77;13.25;;;;;;;-145.49;100.00;62790.56;4932714;29;20047;-74
2022/10/13 04:05:08;;;;;;;35.33;17.45;;;;;;;-145.49;100.00;62790.56;4929555;29;20032;-74
2022/10/13 04:07:34;;;;;;;21.40;14.45;;;;;;;-145.49;100.00;62790.56;4931963;29;20104;-74
2022/10/13 04:10:08;;;;;;;21.85;13.88;;;;;;;-145.49;100.00;62790.56;4934937;29;20047;-74
2022/10/13 04:12:34;;;;;;;24.88;14.10;;;;;;;-145.49;100.00;62790.56;4935494;29;20032;-74
2022/10/13 04:15:00;;;;;;;30.20;16.63;;;;;;;-145.49;100.00;62790.56;4927836;29;20062;-74
2022/10/13 04:17:31;;;;;;;23.73;15.93;;;;;;;-145.49;100.00;62790.56;4949711;28;20031;-73
2022/10/13 04:20:00;;;;;;;27.48;14.10;;;;;;;-145.49;100.00;62790.56;4931466;29;20039;-74
2022/10/13 04:22:31;;;;;;;30.05;16.10;;;;;;;-145.49;100.00;62790.56;4934070;29;20409;-74
2022/10/13 04:24:59;;;;;;;20.38;15.88;;;;;;;-145.49;100.00;62790.56;4926656;29;20050;-74
2022/10/13 04:27:26;;;;;;;36.83;14.88;;;;;;;-145.49;100.00;62790.56;4933726;29;20406;-74
2022/10/13 04:29:54;;;;;;;32.08;17.88;;;;;;;-145.49;100.00;62790.56;4917729;29;20133;-74
2022/10/13 04:32:20;;;;;;;29.77;16.45;;;;;;;-145.49;100.00;62790.56;4935554;29;20059;-74
2022/10/13 04:34:46;;;;;;;52.50;18.52;;;;;;;-145.49;100.00;62790.56;4935224;29;20486;-74
2022/10/13 04:37:13;;;;;;;30.13;20.17;;;;;;;-145.49;100.00;62790.56;4932458;29;20410;-74
2022/10/13 04:39:46;;;;;;;27.80;16.63;;;;;;;-145.49;100.00;62790.56;4933105;29;20043;-74
2022/10/13 04:42:14;;;;;;;33.03;17.08;;;;;;;-145.49;100.00;62790.56;4941048;29;20040;-74
2022/10/13 04:44:40;;;;;;;27.15;14.85;;;;;;;-145.49;100.00;62790.56;4949380;28;20035;-74
2022/10/13 04:47:13;;;;;;;36.30;16.67;;;;;;;-145.49;100.00;62790.56;4925943;29;20490;-73
2022/10/13 04:49:42;;;;;;;25.73;14.60;;;;;;;-145.49;100.00;62790.56;4939638;28;20051;-75
2022/10/13 04:52:10;;;;;;;38.35;13.95;;;;;;;-145.49;100.00;62790.56;4937090;29;20039;-73
2022/10/13 04:54:41;;;;;;;30.77;15.50;;;;;;;-145.49;100.00;62790.56;4923000;29;20047;-74
2022/10/13 04:57:10;;;;;;;36.28;15.40;;;;;;;-145.49;100.00;62790.56;4940258;29;20367;-74
2022/10/13 04:59:36;;;;;;;37.05;16.73;;;;;;;-145.49;100.00;62790.56;4944725;28;20608;-74
2022/10/13 05:02:04;;;;;;;47.05;16.85;;;;;;;-145.49;100.00;62790.56;4931811;29;20044;-74
2022/10/13 05:04:33;;;;;;;38.97;18.63;;;;;;;-145.49;100.00;62790.56;4934404;29;20054;-73
2022/10/13 05:07:02;;;;;;;32.45;17.05;;;;;;;-145.49;100.00;62790.56;4924356;29;20050;-74
2022/10/13 05:09:30;;;;;;;30.92;15.52;;;;;;;-145.49;100.00;62790.56;4926319;29;20047;-73
2022/10/13 05:11:59;;;;;;;31.83;17.88;;;;;;;-145.49;100.00;62790.56;4935061;29;20048;-73
2022/10/13 05:14:29;;;;;;;27.75;16.30;;;;;;;-145.49;100.00;62790.56;4925314;29;20050;-73
2022/10/13 05:16:56;;;;;;;44.95;19.08;;;;;;;-145.49;100.00;62790.56;4933623;29;20046;-74
2022/10/13 05:19:22;;;;;;;32.58;16.50;;;;;;;-145.49;100.00;62790.56;4930165;29;20054;-75
2022/10/13 05:21:48;;;;;;;29.52;17.77;;;;;;;-145.49;100.00;62790.56;4936898;29;20035;-74
2022/10/13 05:24:19;;;;;;;41.20;17.85;;;;;;;-145.49;100.00;62790.56;4926417;29;20046;-75
2022/10/13 05:26:48;;;;;;;38.47;18.30;;;;;;;-145.49;100.00;62790.56;4926448;29;20502;-74
2022/10/13 05:29:19;;;;;;;41.33;21.40;;;;;;;-145.49;100.00;62790.56;4921080;29;20042;-74
2022/10/13 05:31:45;;;;;;;30.83;17.85;;;;;;;-145.49;100.00;62790.56;4929873;29;20032;-74
2022/10/13 05:34:14;;;;;;;46.58;19.73;;;;;;;-145.49;100.00;62790.56;4933752;28;20036;-74
2022/10/13 05:36:44;;;;;;;30.75;17.52;;;;;;;-145.49;100.00;62790.56;4930400;29;20071;-74
2022/10/13 05:39:10;;;;;;;58.40;19.67;;;;;;;-145.49;100.00;62790.56;4941646;28;20036;-74
2022/10/13 05:41:38;;;;;;;44.35;19.60;;;;;;;-145.49;100.00;62790.56;4943840;23;20051;-72
2022/10/13 05:44:09;;;;;;;57.72;21.05;;;;;;;-145.49;100.00;62790.56;4948598;29;20043;-72
2022/10/13 05:46:43;;;;;;;44.70;19.20;;;;;;;-145.49;100.00;62790.56;4941558;28;20031;-72
2022/10/13 05:49:10;;;;;;;43.22;19.83;;;;;;;-145.49;100.00;62790.56;4944499;28;20035;-71
2022/10/13 05:51:42;;;;;;;40.97;19.63;;;;;;;-145.49;100.00;62790.56;4947163;28;20039;-72
2022/10/13 05:54:29;;;;;;;30.70;19.83;;;;;;;-145.49;100.00;62790.56;4948078;28;20046;-73
2022/10/13 05:57:03;;;;;;;38.03;20.65;;;;;;;-145.49;100.00;62790.56;4943248;28;20051;-73
2022/10/13 05:59:36;;;;;;;34.40;18.02;;;;;;;-145.49;100.00;62790.56;4945494;28;20043;-74
2022/10/13 06:02:07;;;;;;;40.70;19.35;;;;;;;-145.49;100.00;62790.56;4947885;29;20047;-73
2022/10/13 06:04:38;;;;;;;37.90;21.17;;;;;;;-145.49;100.00;62790.56;4955154;28;20039;-74
2022/10/13 06:07:07;;;;;;;34.40;19.48;;;;;;;-145.49;100.00;62790.56;4945693;28;20038;-73
2022/10/13 06:09:36;;;;;;;36.13;20.33;;;;;;;-145.49;100.00;62790.56;4943934;28;20613;-73
2022/10/13 06:12:08;;;;;;;24.13;17.23;;;;;;;-145.49;100.00;62790.56;4947378;28;20039;-73
2022/10/13 06:14:37;;;;;;;31.27;18.67;;;;;;;-145.49;100.00;62790.56;4951757;28;20105;-72
2022/10/13 06:17:08;;;;;;;33.90;20.65;;;;;;;-145.49;100.00;62790.56;4944258;28;20047;-72
2022/10/13 06:19:37;;;;;;;29.33;19.40;;;;;;;-145.49;100.00;62790.56;4962053;28;20500;-73
2022/10/13 06:22:07;;;;;;;26.80;16.08;;;;;;;-145.49;100.00;62790.56;4948813;28;20043;-73
2022/10/13 06:24:33;;;;;;;25.90;19.13;;;;;;;-145.49;100.00;62790.56;4934049;29;20035;-73
2022/10/13 06:27:05;;;;;;;25.05;15.50;;;;;;;-145.49;100.00;62790.56;4950996;28;20043;-72
2022/10/13 06:29:36;;;;;;;26.90;19.23;;;;;;;-145.49;100.00;62790.56;4950827;28;20046;-73
2022/10/13 06:32:07;;;;;;;31.63;19.17;;;;;;;-145.49;100.00;62790.56;4948297;28;20039;-71
2022/10/13 06:34:33;;;;;;;25.70;17.73;;;;;;;-145.49;100.00;62790.56;4949458;28;20048;-72
2022/10/13 06:37:01;;;;;;;28.23;20.38;;;;;;;-145.49;100.00;62790.56;4954397;28;20039;-73
2022/10/13 06:39:32;;;;;;;30.02;19.63;;;;;;;-145.49;100.00;62790.56;4954332;28;20050;-72
2022/10/13 06:42:01;;;;;;;24.77;16.42;;;;;;;-145.49;100.00;62790.56;4953193;28;20050;-72
2022/10/13 06:44:30;;;;;;;29.58;16.17;;;;;;;-145.49;100.00;62790.56;4952345;28;20042;-72
2022/10/13 06:47:04;;;;;;;29.83;17.02;;;;;;;-145.49;100.00;62790.56;4954448;28;20050;-72
2022/10/13 06:49:30;;;;;;;35.58;20.75;;;;;;;-145.49;100.00;62790.56;4950431;28;20046;-72
2022/10/13 06:52:01;;;;;;;34.65;21.08;;;;;;;-145.49;100.00;62790.56;4950169;29;20042;-72
2022/10/13 06:54:27;;;;;;;37.35;18.23;;;;;;;-145.49;100.00;62790.56;4945106;28;20636;-72
2022/10/13 06:56:56;;;;;;;30.95;19.27;;;;;;;-145.49;100.00;62790.56;4965095;28;20046;-73
2022/10/13 06:59:27;;;;;;;32.78;17.70;;;;;;;-145.49;100.00;62790.56;4937959;29;20508;-72
2022/10/13 07:01:53;;;;;;;29.60;19.35;;;;;;;-145.49;100.00;62790.56;4946409;28;20405;-72
2022/10/13 07:04:26;;;;;;;31.58;17.90;;;;;;;-145.49;100.00;62790.56;4955749;28;20046;-73
2022/10/13 07:06:58;;;;;;;26.20;17.38;;;;;;;-145.49;100.00;62790.56;4951727;28;21586;-73
2022/10/13 07:09:27;;;;;;;32.67;18.60;;;;;;;-145.49;100.00;62790.56;4949957;28;20035;-73
2022/10/13 07:11:55;;;;;;;32.75;17.75;;;;;;;-145.49;100.00;62790.56;4953912;28;20034;-72
2022/10/13 07:14:26;;;;;;;27.35;18.63;;;;;;;-145.49;100.00;62790.56;4947432;28;20505;-73
2022/10/13 07:16:57;;;;;;;32.60;16.38;;;;;;;-145.49;100.00;62790.56;4945038;28;20051;-73
2022/10/13 07:19:25;;;;;;;34.50;19.95;;;;;;;-145.49;100.00;62790.56;4960358;28;20394;-72
2022/10/13 07:21:57;;;;;;;28.40;17.15;;;;;;;-145.49;100.00;62790.56;4963891;28;20041;-74
2022/10/13 07:24:26;;;;;;;27.05;16.23;;;;;;;-145.49;100.00;62790.56;4919386;29;20035;-73
2022/10/13 07:26:53;;;;;;;27.80;18.42;;;;;;;-145.49;100.00;62790.56;4950829;28;20046;-72
2022/10/13 07:29:21;;;;;;;40.60;20.38;;;;;;;-145.49;100.00;62790.56;4952266;28;20488;-72
2022/10/13 07:31:48;;;;;;;29.25;18.38;;;;;;;-145.49;100.00;62790.56;4946564;28;20031;-72
2022/10/13 07:34:14;;;;;;;25.50;19.50;;;;;;;-145.49;100.00;62790.56;4946001;28;20127;-72
2022/10/13 07:36:41;;;;;;;28.95;19.38;;;;;;;-145.49;100.00;62790.56;4949619;28;20041;-74
2022/10/13 07:39:09;;;;;;;30.98;18.20;;;;;;;-145.49;100.00;62790.56;4962030;28;20046;-72
2022/10/13 07:41:36;;;;;;;28.73;17.73;;;;;;;-145.49;100.00;62790.56;4949109;28;20061;-73
2022/10/13 07:44:02;;;;;;;24.83;18.60;;;;;;;-145.49;100.00;62790.56;4957226;28;20031;-72
2022/10/13 07:46:30;;;;;;;24.95;18.48;;;;;;;-145.49;100.00;62790.56;4947068;29;20515;-73
2022/10/13 07:48:57;;;;;;;22.83;15.23;;;;;;;-145.49;100.00;62790.56;4949466;28;20043;-72
2022/10/13 07:51:27;;;;;;;27.48;17.92;;;;;;;-145.49;100.00;62790.56;4948822;28;20039;-72
2022/10/13 07:53:58;;;;;;;24.60;15.38;;;;;;;-145.49;100.00;62790.56;4954501;29;20039;-73
2022/10/13 07:56:24;;;;;;;29.08;19.48;;;;;;;-145.49;100.00;62790.56;4950797;28;20031;-74
2022/10/13 07:58:56;;;;;;;27.67;15.60;;;;;;;-145.49;100.00;62790.56;4951575;28;20417;-73
2022/10/13 08:01:25;;;;;;;33.65;16.90;;;;;;;-145.49;100.00;62790.56;4951586;28;20039;-73
2022/10/13 08:03:54;;;;;;;24.95;14.57;;;;;;;-145.49;100.00;62790.56;4952714;28;20031;-73
2022/10/13 08:06:20;;;;;;;26.95;16.58;;;;;;;-145.49;100.00;62790.56;4952625;29;20039;-71
2022/10/13 08:08:46;;;;;;;21.38;15.20;;;;;;;-145.49;100.00;62790.56;4949091;28;20050;-71
2022/10/13 08:11:20;;;;;;;26.30;17.05;;;;;;;-145.49;100.00;62790.56;4944332;28;20054;-73
2022/10/13 08:13:50;;;;;;;28.35;18.55;;;;;;;-145.49;100.00;62790.56;4944485;28;20043;-72
2022/10/13 08:16:20;;;;;;;31.63;18.75;;;;;;;-145.49;100.00;62790.56;4946567;28;20039;-73
2022/10/13 08:18:50;;;;;;;27.85;17.48;;;;;;;-145.49;100.00;62790.56;4943604;28;20028;-73
2022/10/13 08:21:17;;;;;;;26.25;14.70;;;;;;;-145.49;100.00;62790.56;4949943;28;20047;-74
2022/10/13 08:23:44;;;;;;;36.30;17.13;;;;;;;-145.49;100.00;62790.56;4950111;28;20050;-74
2022/10/13 08:26:16;;;;;;;25.05;14.68;;;;;;;-145.49;100.00;62790.56;4966673;28;20042;-74
2022/10/13 08:28:42;;;;;;;25.58;16.77;;;;;;;-145.49;100.00;62790.56;4933674;28;20220;-74
2022/10/13 08:31:11;;;;;;;27.70;15.52;;;;;;;-145.49;100.00;62790.56;4965399;28;20052;-74
2022/10/13 08:33:37;;;;;;;20.13;15.10;;;;;;;-145.49;100.00;62790.56;4950632;28;20034;-74
2022/10/13 08:36:05;;;;;;;27.13;16.85;;;;;;;-145.49;100.00;62790.56;4965521;28;20037;-74
2022/10/13 08:38:34;;;;;;;19.42;16.10;;;;;;;-145.49;100.00;62790.56;4964918;28;20039;-72
2022/10/13 08:41:01;;;;;;;19.48;14.23;;;;;;;-145.49;100.00;62790.56;4944130;28;20042;-73
2022/10/13 08:43:29;;;;;;;19.77;14.35;;;;;;;-145.49;100.00;62790.56;4933543;29;20485;-73
2022/10/13 08:46:00;;;;;;;;;;;;;;;-145.49;100.00;62790.56;4944006;28;20054;-72
2022/10/13 08:48:32;;;;;;;22.20;15.30;;;;;;;-145.49;100.00;62790.56;4960614;28;19929;-72
2022/10/13 08:51:04;;;;;;;27.25;18.65;;;;;;;-145.49;100.00;62790.56;4950740;28;20039;-72
2022/10/13 08:53:38;;;;;;;28.08;17.35;;;;;;;-145.49;100.00;62790.56;4942185;28;20050;-72
2022/10/13 08:56:28;;;;;;;22.58;17.30;;;;;;;-145.49;100.00;62790.56;4959779;28;20038;-72
2022/10/13 08:58:57;;;;;;;21.90;16.10;;;;;;;-145.49;100.00;62790.56;4948849;28;20042;-72
2022/10/13 09:01:30;;;;;;;23.60;16.23;;;;;;;-145.49;100.00;62790.56;4948057;28;20108;-72
2022/10/13 09:04:28;;;;;;;23.30;16.90;;;;;;;-145.49;100.00;62790.56;4951013;28;20321;-72
2022/10/13 09:07:14;;;;;;;21.08;14.52;;;;;;;-145.49;100.00;62790.56;4945104;28;20042;-72
2022/10/13 09:09:40;;;;;;;23.10;14.38;;;;;;;-145.49;100.00;62790.56;4953701;28;20031;-72
2022/10/13 09:12:09;;;;;;;21.42;15.23;;;;;;;-145.49;100.00;62790.56;4949344;28;20035;-72
2022/10/13 09:14:40;;;;;;;20.75;14.75;;;;;;;-145.49;100.00;62790.56;4968082;28;20027;-72
2022/10/13 09:17:27;;;;;;;29.48;16.65;;;;;;;-145.49;100.00;62790.56;4929356;29;20481;-72
2022/10/13 09:20:16;;;;;;;20.92;15.82;;;;;;;-145.49;100.00;62790.56;4950596;28;20038;-72
2022/10/13 09:22:44;;;;;;;20.73;16.95;;;;;;;-145.49;100.00;62790.56;4944896;28;20058;-72
2022/10/13 09:25:22;;;;;;;23.45;14.05;;;;;;;-145.49;100.00;62790.56;4945916;28;20035;-72
2022/10/13 09:28:16;;;;;;;18.90;15.60;;;;;;;-145.49;100.00;62790.56;4940233;28;20047;-73
2022/10/13 09:30:48;;;;;;;21.80;13.73;;;;;;;-145.49;100.00;62790.56;4945648;28;20031;-73
2022/10/13 09:33:22;;;;;;;23.55;15.85;;;;;;;-145.49;100.00;62790.56;4944201;28;20038;-73
2022/10/13 09:36:09;;;;;;;25.45;16.73;;;;;;;-145.49;100.00;62790.56;4956878;28;20413;-73
2022/10/13 09:38:38;;;;;;;24.73;15.75;;;;;;;-145.49;100.00;62790.56;4962584;28;20047;-73
2022/10/13 09:41:14;;;;;;;23.42;16.77;;;;;;;-145.49;100.00;62790.56;4948724;28;20061;-73
2022/10/13 09:43:59;;;;;;;23.98;16.85;;;;;;;-145.49;100.00;62790.56;4953783;28;20039;-74
2022/10/13 09:46:34;;;;;;;22.88;15.73;;;;;;;-145.49;100.00;62790.56;4947143;28;20532;-73
2022/10/13 09:49:27;;;;;;;23.00;14.35;;;;;;;-145.49;100.00;62790.56;4945432;28;20048;-74
2022/10/13 09:52:00;;;;;;;23.38;14.65;;;;;;;-145.49;100.00;62790.56;4943934;28;20031;-72
2022/10/13 09:54:38;;;;;;;20.52;14.93;;;;;;;-145.49;100.00;62790.56;4944765;28;20031;-73
2022/10/13 09:57:47;;;;;;;19.63;15.75;;;;;;;-145.49;100.00;62790.56;4940470;28;20043;-73
2022/10/13 10:00:20;;;;;;;23.75;17.20;;;;;;;-145.49;100.00;62790.56;4957742;28;20494;-74
2022/10/13 10:03:10;;;;;;;23.98;16.42;;;;;;;-145.49;100.00;62790.56;4947013;28;20066;-74
2022/10/13 10:05:38;;;;;;;26.60;18.58;;;;;;;-145.49;100.00;62790.56;4944280;28;20058;-72
2022/10/13 10:08:28;;;;;;;23.08;16.88;;;;;;;-145.49;100.00;62790.56;4945310;28;20035;-73
2022/10/13 10:11:04;;;;;;;25.33;15.75;;;;;;;-145.49;100.00;62790.56;4960259;28;20043;-73
2022/10/13 10:13:30;;;;;;;28.20;17.75;;;;;;;-145.49;100.00;62790.56;4950324;28;20050;-73
2022/10/13 10:16:12;;;;;;;23.52;17.10;;;;;;;-145.49;100.00;62790.56;4967683;28;20407;-73
2022/10/13 10:18:41;;;;;;;31.23;15.63;;;;;;;-145.49;100.00;62790.56;4950519;28;20035;-73
2022/10/13 10:21:15;;;;;;;20.40;16.30;;;;;;;-145.49;100.00;62790.56;4949625;28;20039;-73
2022/10/13 10:23:52;;;;;;;22.73;14.82;;;;;;;-145.49;100.00;62790.56;4950308;28;20043;-73
2022/10/13 10:26:50;;;;;;;22.55;17.60;;;;;;;-145.49;100.00;62790.56;4951425;28;20046;-73
2022/10/13 10:29:38;;;;;;;25.55;16.83;;;;;;;-145.49;100.00;62790.56;4969524;28;20042;-73
2022/10/13 10:32:27;;;;;;;24.42;16.55;;;;;;;-145.49;100.00;62790.56;4945090;28;20035;-73
2022/10/13 10:35:00;;;;;;;22.77;16.35;;;;;;;-145.49;100.00;62790.56;4950475;28;20043;-73
2022/10/13 10:37:43;;;;;;;24.42;17.13;;;;;;;-145.49;100.00;62790.56;4949127;28;20505;-72
2022/10/13 10:43:40;;;;;;;21.15;15.45;;;;;;;-145.49;100.00;62790.56;4948470;28;20372;-73
2022/10/13 10:46:24;;;;;;;20.50;15.38;;;;;;;-145.49;100.00;62790.56;4946124;28;20031;-72
2022/10/13 10:48:56;;;;;;;22.58;16.10;;;;;;;-145.49;100.00;62790.56;4964114;28;20039;-72
2022/10/13 10:51:31;;;;;;;25.27;15.82;;;;;;;-145.49;100.00;62790.56;4943860;28;20031;-73
2022/10/13 10:54:11;;;;;;;21.48;16.17;;;;;;;-145.49;100.00;62790.56;4942342;28;20405;-73
2022/10/13 10:56:48;;;;;;;24.50;18.55;;;;;;;-145.49;100.00;62790.56;4951629;28;20046;-73
2022/10/13 10:59:35;;;;;;;25.42;16.50;;;;;;;-145.49;100.00;62790.56;4952698;28;20043;-73
2022/10/13 11:02:05;;;;;;;26.90;19.02;;;;;;;-145.49;100.00;62790.56;4946783;28;20035;-73
2022/10/13 11:04:39;;;;;;;23.80;15.15;;;;;;;-145.49;100.00;62790.56;4945260;28;20042;-73
2022/10/13 11:07:22;;;;;;;29.77;15.88;;;;;;;-145.49;100.00;62790.56;4961929;28;20043;-73
2022/10/13 11:09:49;;;;;;;20.02;16.52;;;;;;;-145.49;100.00;62790.56;4952107;28;20043;-73
2022/10/13 11:12:18;;;;;;;23.98;15.32;;;;;;;-145.49;100.00;62790.56;4965485;28;20038;-72
2022/10/13 11:15:10;;;;;;;24.73;15.80;;;;;;;-145.49;100.00;62790.56;4953660;28;20039;-73
2022/10/13 11:17:40;;;;;;;22.08;15.55;;;;;;;-145.49;100.00;62790.56;4952245;28;20039;-74
2022/10/13 11:20:35;;;;;;;21.88;16.27;;;;;;;-145.49;100.00;62790.56;4953254;28;20058;-74